createdAt,value
2018-02-24T00:00:31.570Z,18.55
2018-02-24T00:01:37.819Z,19.20
2018-02-24T00:02:44.041Z,22.52
2018-02-24T00:03:50.191Z,21.30
2018-02-24T00:04:56.085Z,20.05
2018-02-24T00:06:02.275Z,19.85
2018-02-24T00:07:08.473Z,19.48
2018-02-24T00:08:14.777Z,22.37
2018-02-24T00:09:20.954Z,20.50
2018-02-24T00:10:27.201Z,20.35
2018-02-24T00:11:33.378Z,20.85
2018-02-24T00:12:39.538Z,20.35
2018-02-24T00:13:45.700Z,20.50
2018-02-24T00:14:52.769Z,20.55
2018-02-24T00:15:59.033Z,20.25
2018-02-24T00:17:05.025Z,18.73
2018-02-24T00:18:10.996Z,21.52
2018-02-24T00:19:17.207Z,22.83
2018-02-24T00:20:23.420Z,23.52
2018-02-24T00:21:29.577Z,24.60
2018-02-24T00:22:42.646Z,23.52
2018-02-24T00:23:48.894Z,21.95
2018-02-24T00:24:55.044Z,20.52
2018-02-24T00:26:01.292Z,21.33
2018-02-24T00:27:07.513Z,23.27
2018-02-24T00:28:13.391Z,22.55
2018-02-24T00:29:19.557Z,22.13
2018-02-24T00:30:25.696Z,22.15
2018-02-24T00:31:31.873Z,20.88
2018-02-24T00:32:38.137Z,22.45
2018-02-24T00:33:44.358Z,20.88
2018-02-24T00:34:50.601Z,20.90
2018-02-24T00:35:57.522Z,21.20
2018-02-24T00:37:04.108Z,21.62
2018-02-24T00:38:10.303Z,18.37
2018-02-24T00:39:16.512Z,20.95
2018-02-24T00:40:22.724Z,21.87
2018-02-24T00:41:28.673Z,18.17
2018-02-24T00:42:34.864Z,21.10
2018-02-24T00:43:40.899Z,19.77
2018-02-24T00:44:47.079Z,19.80
2018-02-24T00:45:53.309Z,20.92
2018-02-24T00:46:59.549Z,20.80
2018-02-24T00:48:05.553Z,18.45
2018-02-24T00:49:11.560Z,19.65
2018-02-24T00:50:17.737Z,18.73
2018-02-24T00:51:24.053Z,19.75
2018-02-24T00:52:30.222Z,20.10
2018-02-24T00:53:36.223Z,18.00
2018-02-24T00:54:42.206Z,19.50
2018-02-24T00:55:48.218Z,19.40
2018-02-24T00:56:54.891Z,18.62
2018-02-24T00:58:01.073Z,18.45
2018-02-24T00:59:07.257Z,19.23
2018-02-24T01:00:13.410Z,17.70
2018-02-24T01:01:19.493Z,16.98
2018-02-24T01:02:25.445Z,20.05
2018-02-24T01:03:36.532Z,18.70
2018-02-24T01:04:42.371Z,16.45
2018-02-24T01:05:48.858Z,17.05
2018-02-24T01:06:55.434Z,15.73
2018-02-24T01:08:01.460Z,17.92
2018-02-24T01:09:07.345Z,17.37
2018-02-24T01:10:13.254Z,17.75
2018-02-24T01:11:19.427Z,17.52
2018-02-24T01:12:25.644Z,17.30
2018-02-24T01:13:31.844Z,17.37
2018-02-24T01:14:37.740Z,17.85
2018-02-24T01:15:43.926Z,17.92
2018-02-24T01:16:50.130Z,18.25
2018-02-24T01:17:56.062Z,17.40
2018-02-24T01:19:01.597Z,18.05
2018-02-24T01:20:07.146Z,18.52
2018-02-24T01:21:13.027Z,18.48
2018-02-24T01:22:19.243Z,19.48
2018-02-24T01:23:25.215Z,18.12
2018-02-24T01:24:31.432Z,17.45
2018-02-24T01:25:40.691Z,18.15
2018-02-24T01:26:46.967Z,18.15
2018-02-24T01:27:53.160Z,18.45
2018-02-24T01:28:59.357Z,20.10
2018-02-24T01:30:05.333Z,20.08
2018-02-24T01:31:11.528Z,19.27
2018-02-24T01:32:17.813Z,19.25
2018-02-24T01:33:23.972Z,19.73
2018-02-24T01:34:30.774Z,19.48
2018-02-24T01:35:36.820Z,19.65
2018-02-24T01:36:42.923Z,18.98
2018-02-24T01:37:49.058Z,17.58
2018-02-24T01:39:04.628Z,19.27
2018-02-24T01:40:10.871Z,18.25
2018-02-24T01:41:17.095Z,18.85
2018-02-24T01:42:23.307Z,19.70
2018-02-24T01:43:29.580Z,18.25
2018-02-24T01:44:35.733Z,17.15
2018-02-24T01:45:41.945Z,19.98
2018-02-24T01:46:48.469Z,17.77
2018-02-24T01:47:54.349Z,19.45
2018-02-24T01:49:00.274Z,17.85
2018-02-24T01:50:06.433Z,17.73
2018-02-24T01:51:12.651Z,18.08
2018-02-24T01:52:18.596Z,17.85
2018-02-24T01:53:24.744Z,18.85
2018-02-24T01:54:30.969Z,20.58
2018-02-24T01:55:37.252Z,21.62
2018-02-24T01:56:45.477Z,19.45
2018-02-24T01:57:51.354Z,19.25
2018-02-24T01:58:57.549Z,19.75
2018-02-24T02:00:03.647Z,18.90
2018-02-24T02:01:09.537Z,19.05
2018-02-24T02:02:15.709Z,19.05
2018-02-24T02:03:21.845Z,18.73
2018-02-24T02:04:28.039Z,20.98
2018-02-24T02:05:35.161Z,20.75
2018-02-24T02:06:41.362Z,18.17
2018-02-24T02:07:47.258Z,20.95
2018-02-24T02:08:53.218Z,19.10
2018-02-24T02:09:59.450Z,19.70
2018-02-24T02:11:05.622Z,18.70
2018-02-24T02:12:11.833Z,20.05
2018-02-24T02:13:18.006Z,19.33
2018-02-24T02:14:26.872Z,19.60
2018-02-24T02:15:33.023Z,19.15
2018-02-24T02:16:38.913Z,19.33
2018-02-24T02:17:45.136Z,18.45
2018-02-24T02:18:51.325Z,19.35
2018-02-24T02:19:57.160Z,20.30
2018-02-24T02:21:03.368Z,19.25
2018-02-24T02:22:09.529Z,19.95
2018-02-24T02:23:15.479Z,18.85
2018-02-24T02:24:21.696Z,17.02
2018-02-24T02:25:27.926Z,19.20
2018-02-24T02:26:34.163Z,19.98
2018-02-24T02:27:40.374Z,17.85
2018-02-24T02:28:46.499Z,18.37
2018-02-24T02:29:52.683Z,18.70
2018-02-24T02:30:58.954Z,18.33
2018-02-24T02:32:05.135Z,20.50
2018-02-24T02:33:11.283Z,19.52
2018-02-24T02:34:17.431Z,19.23
2018-02-24T02:35:23.378Z,17.80
2018-02-24T02:36:29.576Z,20.48
2018-02-24T02:37:35.530Z,18.40
2018-02-24T02:38:41.751Z,19.25
2018-02-24T02:39:47.711Z,19.15
2018-02-24T02:40:53.624Z,19.15
2018-02-24T02:41:59.788Z,17.80
2018-02-24T02:43:05.958Z,19.27
2018-02-24T02:44:12.176Z,18.62
2018-02-24T02:45:18.303Z,18.37
2018-02-24T02:46:25.463Z,18.48
2018-02-24T02:47:31.701Z,18.58
2018-02-24T02:48:37.957Z,18.10
2018-02-24T02:49:43.864Z,18.23
2018-02-24T02:50:55.056Z,16.70
2018-02-24T02:52:01.310Z,18.12
2018-02-24T02:53:07.505Z,18.55
2018-02-24T02:54:13.333Z,18.55
2018-02-24T02:55:19.501Z,19.50
2018-02-24T02:56:25.376Z,17.62
2018-02-24T02:57:31.600Z,18.05
2018-02-24T02:58:37.747Z,18.50
2018-02-24T02:59:43.988Z,18.77
2018-02-24T03:00:50.203Z,18.05
2018-02-24T03:01:56.438Z,18.55
2018-02-24T03:03:02.611Z,18.80
2018-02-24T03:04:08.870Z,16.73
2018-02-24T03:05:15.519Z,19.83
2018-02-24T03:06:21.508Z,18.50
2018-02-24T03:07:27.445Z,18.87
2018-02-24T03:08:33.380Z,17.35
2018-02-24T03:09:39.539Z,17.95
2018-02-24T03:10:45.703Z,17.98
2018-02-24T03:11:51.584Z,17.83
2018-02-24T03:12:57.784Z,16.90
2018-02-24T03:14:04.051Z,17.80
2018-02-24T03:15:10.348Z,18.60
2018-02-24T03:16:16.275Z,16.27
2018-02-24T03:17:22.253Z,17.02
2018-02-24T03:18:28.560Z,16.23
2018-02-24T03:19:34.807Z,17.95
2018-02-24T03:20:41.426Z,17.30
2018-02-24T03:21:47.603Z,17.35
2018-02-24T03:22:57.666Z,15.98
2018-02-24T03:24:03.945Z,18.05
2018-02-24T03:25:10.149Z,16.87
2018-02-24T03:26:16.377Z,19.10
2018-02-24T03:27:27.332Z,18.37
2018-02-24T03:28:33.514Z,16.90
2018-02-24T03:29:39.758Z,16.85
2018-02-24T03:30:45.950Z,17.67
2018-02-24T03:31:51.874Z,16.85
2018-02-24T03:32:58.072Z,17.65
2018-02-24T03:34:03.922Z,17.70
2018-02-24T03:35:10.372Z,16.58
2018-02-24T03:36:16.575Z,17.00
2018-02-24T03:37:22.547Z,17.02
2018-02-24T03:38:29.635Z,16.77
2018-02-24T03:39:35.837Z,16.98
2018-02-24T03:40:42.076Z,15.70
2018-02-24T03:41:48.052Z,18.35
2018-02-24T03:42:53.824Z,16.70
2018-02-24T03:43:59.736Z,16.05
2018-02-24T03:45:05.753Z,15.75
2018-02-24T03:47:44.001Z,17.52
2018-02-24T03:48:50.192Z,18.35
2018-02-24T03:49:56.211Z,17.98
2018-02-24T03:51:02.357Z,16.83
2018-02-24T03:52:08.198Z,18.40
2018-02-24T03:53:14.141Z,16.55
2018-02-24T03:54:20.306Z,15.75
2018-02-24T03:55:26.301Z,16.90
2018-02-24T03:56:32.231Z,16.85
2018-02-24T03:57:38.281Z,17.45
2018-02-24T03:58:45.254Z,17.80
2018-02-24T03:59:52.285Z,16.05
2018-02-24T04:00:58.535Z,18.35
2018-02-24T04:02:04.430Z,17.10
2018-02-24T04:03:10.640Z,15.55
2018-02-24T04:04:21.576Z,17.33
2018-02-24T04:05:27.928Z,17.42
2018-02-24T04:06:34.091Z,16.87
2018-02-24T04:07:40.300Z,17.35
2018-02-24T04:08:47.720Z,16.83
2018-02-24T04:09:53.997Z,16.67
2018-02-24T04:11:00.173Z,17.40
2018-02-24T04:12:05.844Z,17.45
2018-02-24T04:13:11.700Z,17.00
2018-02-24T04:14:17.572Z,15.68
2018-02-24T04:15:23.773Z,16.55
2018-02-24T04:16:30.016Z,15.73
2018-02-24T04:17:36.457Z,17.17
2018-02-24T04:18:42.613Z,15.85
2018-02-24T04:19:48.910Z,15.20
2018-02-24T04:20:55.061Z,16.33
2018-02-24T04:22:01.217Z,15.82
2018-02-24T04:23:07.392Z,15.57
2018-02-24T04:24:13.321Z,16.17
2018-02-24T04:25:19.570Z,17.08
2018-02-24T04:26:25.760Z,15.50
2018-02-24T04:27:31.943Z,16.12
2018-02-24T04:28:38.128Z,17.08
2018-02-24T04:29:44.036Z,16.15
2018-02-24T04:30:50.235Z,16.17
2018-02-24T04:31:56.433Z,16.80
2018-02-24T04:33:02.593Z,16.42
2018-02-24T04:34:14.214Z,16.80
2018-02-24T04:35:20.458Z,15.23
2018-02-24T04:36:26.696Z,15.45
2018-02-24T04:37:32.972Z,14.65
2018-02-24T04:38:39.127Z,15.95
2018-02-24T04:39:45.345Z,16.95
2018-02-24T04:40:51.574Z,16.77
2018-02-24T04:41:57.742Z,15.43
2018-02-24T04:43:03.936Z,16.25
2018-02-24T04:44:09.844Z,14.95
2018-02-24T04:45:16.009Z,14.95
2018-02-24T04:46:22.145Z,16.55
2018-02-24T04:47:28.356Z,14.73
2018-02-24T04:48:34.588Z,15.68
2018-02-24T04:49:40.779Z,14.68
2018-02-24T04:50:46.930Z,14.95
2018-02-24T04:51:53.072Z,16.35
2018-02-24T04:52:59.255Z,14.87
2018-02-24T04:54:05.442Z,15.52
2018-02-24T04:55:11.632Z,14.85
2018-02-24T04:56:17.803Z,14.32
2018-02-24T04:57:24.038Z,15.52
2018-02-24T04:58:30.285Z,15.82
2018-02-24T04:59:41.472Z,15.82
2018-02-24T05:00:47.659Z,14.93
2018-02-24T05:01:53.896Z,16.30
2018-02-24T05:03:00.066Z,15.20
2018-02-24T05:04:06.285Z,14.45
2018-02-24T05:05:12.454Z,14.60
2018-02-24T05:06:18.614Z,13.85
2018-02-24T05:07:24.481Z,15.30
2018-02-24T05:08:31.077Z,15.27
2018-02-24T05:09:36.669Z,15.05
2018-02-24T05:10:42.911Z,15.60
2018-02-24T05:11:49.097Z,14.52
2018-02-24T05:12:55.275Z,16.40
2018-02-24T05:14:01.431Z,14.20
2018-02-24T05:15:07.617Z,14.82
2018-02-24T05:16:13.804Z,14.40
2018-02-24T05:17:19.969Z,14.27
2018-02-24T05:18:26.183Z,14.50
2018-02-24T05:19:32.551Z,15.98
2018-02-24T05:20:38.819Z,15.40
2018-02-24T05:21:44.796Z,14.55
2018-02-24T05:22:50.940Z,16.20
2018-02-24T05:23:57.095Z,15.00
2018-02-24T05:25:03.248Z,14.50
2018-02-24T05:26:09.537Z,15.25
2018-02-24T05:27:15.762Z,16.15
2018-02-24T05:28:21.980Z,13.40
2018-02-24T05:29:28.129Z,14.18
2018-02-24T05:30:34.364Z,14.73
2018-02-24T05:31:41.272Z,14.43
2018-02-24T05:32:47.652Z,16.73
2018-02-24T05:33:53.863Z,16.23
2018-02-24T05:35:00.058Z,16.70
2018-02-24T05:36:06.332Z,17.45
2018-02-24T05:37:12.520Z,16.77
2018-02-24T05:38:18.456Z,17.15
2018-02-24T05:39:31.591Z,14.90
2018-02-24T05:40:39.402Z,16.77
2018-02-24T05:41:46.688Z,15.55
2018-02-24T05:42:54.831Z,17.55
2018-02-24T05:44:02.452Z,14.00
2018-02-24T05:45:09.543Z,15.65
2018-02-24T05:46:16.560Z,14.68
2018-02-24T05:47:23.102Z,15.63
2018-02-24T05:48:30.458Z,13.52
2018-02-24T05:49:37.666Z,13.88
2018-02-24T05:50:46.424Z,14.52
2018-02-24T05:51:55.318Z,15.25
2018-02-24T05:53:03.128Z,13.57
2018-02-24T05:54:10.707Z,15.13
2018-02-24T05:55:18.111Z,14.63
2018-02-24T05:56:25.603Z,13.70
2018-02-24T05:57:33.638Z,14.75
2018-02-24T05:58:40.924Z,13.93
2018-02-24T05:59:49.026Z,13.30
2018-02-24T06:00:56.913Z,16.08
2018-02-24T06:02:05.309Z,14.50
2018-02-24T06:03:13.368Z,14.32
2018-02-24T06:04:20.726Z,13.90
2018-02-24T06:05:29.486Z,14.02
2018-02-24T06:06:38.187Z,15.50
2018-02-24T06:07:45.499Z,15.75
2018-02-24T06:08:53.771Z,14.35
2018-02-24T06:10:01.772Z,13.77
2018-02-24T06:11:09.794Z,14.50
2018-02-24T06:12:16.996Z,13.43
2018-02-24T06:13:23.295Z,14.75
2018-02-24T06:14:29.203Z,14.02
2018-02-24T06:15:36.100Z,16.00
2018-02-24T06:16:41.945Z,15.82
2018-02-24T06:17:48.084Z,15.13
2018-02-24T06:18:54.270Z,13.93
2018-02-24T06:20:00.205Z,14.50
2018-02-24T06:21:06.734Z,14.23
2018-02-24T06:22:12.868Z,14.80
2018-02-24T06:23:18.994Z,14.20
2018-02-24T06:24:25.168Z,14.52
2018-02-24T06:25:31.138Z,14.93
2018-02-24T06:26:36.800Z,16.25
2018-02-24T06:27:42.649Z,15.00
2018-02-24T06:28:48.833Z,16.27
2018-02-24T06:29:54.910Z,15.48
2018-02-24T06:31:00.853Z,15.55
2018-02-24T06:32:07.067Z,17.62
2018-02-24T06:33:13.099Z,18.40
2018-02-24T06:34:19.258Z,18.87
2018-02-24T06:35:25.393Z,18.35
2018-02-24T06:36:31.568Z,16.42
2018-02-24T06:37:43.433Z,18.55
2018-02-24T06:38:49.399Z,16.23
2018-02-24T06:39:56.390Z,17.90
2018-02-24T06:41:02.274Z,16.27
2018-02-24T06:42:12.455Z,16.37
2018-02-24T06:43:18.704Z,16.40
2018-02-24T06:44:24.825Z,17.55
2018-02-24T06:45:39.608Z,19.67
2018-02-24T06:46:45.533Z,20.17
2018-02-24T06:47:51.847Z,20.45
2018-02-24T06:48:58.332Z,17.45
2018-02-24T06:50:04.571Z,18.77
2018-02-24T06:51:10.869Z,19.83
2018-02-24T06:52:17.165Z,19.75
2018-02-24T06:53:23.402Z,23.15
2018-02-24T06:54:30.185Z,19.65
2018-02-24T06:55:36.770Z,23.23
2018-02-24T06:56:43.541Z,21.85
2018-02-24T06:57:51.143Z,22.10
2018-02-24T06:58:59.088Z,18.15
2018-02-24T07:00:04.859Z,16.65
2018-02-24T07:01:11.066Z,18.60
2018-02-24T07:02:16.931Z,18.37
2018-02-24T07:03:23.152Z,17.92
2018-02-24T07:04:29.451Z,17.17
2018-02-24T07:05:35.636Z,18.95
2018-02-24T07:06:42.355Z,18.65
2018-02-24T07:07:48.637Z,19.02
2018-02-24T07:08:55.071Z,17.95
2018-02-24T07:10:01.486Z,16.45
2018-02-24T07:11:07.703Z,15.75
2018-02-24T07:12:14.057Z,16.00
2018-02-24T07:13:20.304Z,16.23
2018-02-24T07:14:26.588Z,17.60
2018-02-24T07:15:32.932Z,16.23
2018-02-24T07:16:39.325Z,16.30
2018-02-24T07:17:45.587Z,17.77
2018-02-24T07:18:51.770Z,16.75
2018-02-24T07:19:58.179Z,18.40
2018-02-24T07:21:04.213Z,15.82
2018-02-24T07:22:10.648Z,16.83
2018-02-24T07:23:16.699Z,17.62
2018-02-24T07:24:22.957Z,16.48
2018-02-24T07:25:29.268Z,17.27
2018-02-24T07:26:35.615Z,18.87
2018-02-24T07:27:41.970Z,18.35
2018-02-24T07:28:48.275Z,17.55
2018-02-24T07:29:55.734Z,17.95
2018-02-24T07:31:01.985Z,17.70
2018-02-24T07:32:08.580Z,17.55
2018-02-24T07:33:14.776Z,17.62
2018-02-24T07:34:21.112Z,15.70
2018-02-24T07:35:27.355Z,19.45
2018-02-24T07:36:33.691Z,18.35
2018-02-24T07:37:39.962Z,15.43
2018-02-24T07:38:46.391Z,16.02
2018-02-24T07:39:52.482Z,16.80
2018-02-24T07:40:58.766Z,19.50
2018-02-24T07:42:05.185Z,18.10
2018-02-24T07:43:11.472Z,16.65
2018-02-24T07:44:17.783Z,15.85
2018-02-24T07:45:27.990Z,17.67
2018-02-24T07:46:34.288Z,16.08
2018-02-24T07:47:40.911Z,15.63
2018-02-24T07:48:47.320Z,16.37
2018-02-24T07:49:53.569Z,15.25
2018-02-24T07:50:59.775Z,15.45
2018-02-24T07:52:05.981Z,15.05
2018-02-24T07:53:12.311Z,15.40
2018-02-24T07:54:18.581Z,14.07
2018-02-24T07:55:24.868Z,17.17
2018-02-24T07:56:31.371Z,15.35
2018-02-24T07:57:37.661Z,14.52
2018-02-24T07:58:44.235Z,14.98
2018-02-24T07:59:50.718Z,15.57
2018-02-24T08:00:56.941Z,14.80
2018-02-24T08:02:03.163Z,14.45
2018-02-24T08:03:09.277Z,15.48
2018-02-24T08:04:15.527Z,14.32
2018-02-24T08:05:21.450Z,14.35
2018-02-24T08:06:27.651Z,15.60
2018-02-24T08:07:33.576Z,15.77
2018-02-24T08:08:39.719Z,14.48
2018-02-24T08:09:45.986Z,14.65
2018-02-24T08:10:52.188Z,14.10
2018-02-24T08:11:58.558Z,13.05
2018-02-24T08:13:04.774Z,13.40
2018-02-24T08:14:10.913Z,12.75
2018-02-24T08:15:17.139Z,16.67
2018-02-24T08:16:23.376Z,12.70
2018-02-24T08:17:29.506Z,14.87
2018-02-24T08:18:35.660Z,13.77
2018-02-24T08:19:41.876Z,15.35
2018-02-24T08:20:48.110Z,13.82
2018-02-24T08:21:54.147Z,13.50
2018-02-24T08:23:00.384Z,12.30
2018-02-24T08:24:06.509Z,14.87
2018-02-24T08:25:12.640Z,14.20
2018-02-24T08:26:18.536Z,13.77
2018-02-24T08:27:24.732Z,14.25
2018-02-24T08:28:31.197Z,13.07
2018-02-24T08:29:37.355Z,14.95
2018-02-24T08:30:43.638Z,13.50
2018-02-24T08:31:49.896Z,15.50
2018-02-24T08:32:56.046Z,15.15
2018-02-24T08:34:02.216Z,14.18
2018-02-24T08:35:08.428Z,15.68
2018-02-24T08:36:14.600Z,15.13
2018-02-24T08:37:20.793Z,16.35
2018-02-24T08:38:27.078Z,13.23
2018-02-24T08:39:34.546Z,15.10
2018-02-24T08:40:41.816Z,14.20
2018-02-24T08:41:52.954Z,15.32
2018-02-24T08:42:59.994Z,15.13
2018-02-24T08:44:06.866Z,14.38
2018-02-24T08:45:14.046Z,14.73
2018-02-24T08:46:21.475Z,15.27
2018-02-24T08:47:32.547Z,14.65
2018-02-24T08:48:40.714Z,15.40
2018-02-24T08:49:48.166Z,14.63
2018-02-24T08:50:55.736Z,15.80
2018-02-24T08:52:02.365Z,14.38
2018-02-24T08:53:09.412Z,15.38
2018-02-24T08:54:16.339Z,14.25
2018-02-24T08:55:23.825Z,14.07
2018-02-24T08:56:30.851Z,12.55
2018-02-24T08:57:37.898Z,14.93
2018-02-24T08:58:44.814Z,14.50
2018-02-24T08:59:52.431Z,15.38
2018-02-24T09:00:59.680Z,16.05
2018-02-24T09:02:06.684Z,14.43
2018-02-24T09:03:13.633Z,14.23
2018-02-24T09:04:21.020Z,14.10
2018-02-24T09:05:28.327Z,14.25
2018-02-24T09:06:35.107Z,15.18
2018-02-24T09:07:43.330Z,14.30
2018-02-24T09:08:50.963Z,13.35
2018-02-24T09:09:58.798Z,13.07
2018-02-24T09:11:05.951Z,14.00
2018-02-24T09:12:13.445Z,14.45
2018-02-24T09:13:20.308Z,12.52
2018-02-24T09:14:27.547Z,13.32
2018-02-24T09:15:34.698Z,12.10
2018-02-24T09:16:41.792Z,13.43
2018-02-24T09:17:49.603Z,11.93
2018-02-24T09:18:56.627Z,12.30
2018-02-24T09:20:05.106Z,12.23
2018-02-24T09:21:12.359Z,11.30
2018-02-24T09:22:20.122Z,11.20
2018-02-24T09:23:27.234Z,10.55
2018-02-24T09:24:34.396Z,11.00
2018-02-24T09:25:41.683Z,11.85
2018-02-24T09:26:48.715Z,9.98
2018-02-24T09:27:55.914Z,11.07
2018-02-24T09:29:02.978Z,10.43
2018-02-24T09:30:09.877Z,8.40
2018-02-24T09:31:16.915Z,8.05
2018-02-24T09:32:24.288Z,5.95
2018-02-24T09:33:30.942Z,6.82
2018-02-24T09:34:37.704Z,5.50
2018-02-24T09:35:43.973Z,6.20
2018-02-24T09:36:50.148Z,7.00
2018-02-24T09:37:56.411Z,5.87
2018-02-24T09:39:02.603Z,7.05
2018-02-24T09:40:08.586Z,5.35
2018-02-24T09:41:14.941Z,3.53
2018-02-24T09:42:21.148Z,5.45
2018-02-24T09:43:27.401Z,5.40
2018-02-24T09:44:33.614Z,5.18
2018-02-24T09:45:39.850Z,5.00
2018-02-24T09:46:45.784Z,6.18
2018-02-24T09:47:51.987Z,5.30
2018-02-24T09:48:58.174Z,4.87
2018-02-24T09:50:04.426Z,4.47
2018-02-24T09:51:10.676Z,6.30
2018-02-24T09:52:18.650Z,5.87
2018-02-24T09:53:24.886Z,5.35
2018-02-24T09:54:31.154Z,6.05
2018-02-24T09:55:37.514Z,5.30
2018-02-24T09:56:43.776Z,4.95
2018-02-24T09:57:51.002Z,4.78
2018-02-24T09:58:58.702Z,3.97
2018-02-24T10:00:04.248Z,5.07
2018-02-24T10:01:10.482Z,4.53
2018-02-24T10:02:16.767Z,4.50
2018-02-24T10:03:22.790Z,4.20
2018-02-24T10:04:29.040Z,5.07
2018-02-24T10:05:36.292Z,4.75
2018-02-24T10:06:42.662Z,5.12
2018-02-24T10:07:48.715Z,5.43
2018-02-24T10:08:54.990Z,4.43
2018-02-24T10:10:01.264Z,4.53
2018-02-24T10:11:07.445Z,4.18
2018-02-24T10:12:13.671Z,4.70
2018-02-24T10:13:19.884Z,4.20
2018-02-24T10:14:26.160Z,3.35
2018-02-24T10:15:32.835Z,3.65
2018-02-24T10:16:41.133Z,3.45
2018-02-24T10:17:47.340Z,4.32
2018-02-24T10:18:53.641Z,3.53
2018-02-24T10:20:00.022Z,4.05
2018-02-24T10:21:06.277Z,3.37
2018-02-24T10:22:12.599Z,3.62
2018-02-24T10:23:18.510Z,3.90
2018-02-24T10:24:24.681Z,4.50
2018-02-24T10:25:30.929Z,4.65
2018-02-24T10:26:37.146Z,4.10
2018-02-24T10:27:44.144Z,4.43
2018-02-24T10:28:50.373Z,3.72
2018-02-24T10:29:56.676Z,3.85
2018-02-24T10:31:02.902Z,4.78
2018-02-24T10:32:09.144Z,4.03
2018-02-24T10:33:15.304Z,4.00
2018-02-24T10:34:21.429Z,5.07
2018-02-24T10:35:29.030Z,4.55
2018-02-24T10:36:36.222Z,4.53
2018-02-24T10:37:45.027Z,4.00
2018-02-24T10:38:51.379Z,3.85
2018-02-24T10:39:58.237Z,3.97
2018-02-24T10:41:06.465Z,4.28
2018-02-24T10:42:12.705Z,3.55
2018-02-24T10:43:18.967Z,3.65
2018-02-24T10:44:25.259Z,3.67
2018-02-24T10:45:31.453Z,4.65
2018-02-24T10:46:38.431Z,4.12
2018-02-24T10:47:44.718Z,3.53
2018-02-24T10:50:29.831Z,4.10
2018-02-24T10:51:35.930Z,4.03
2018-02-24T10:52:42.125Z,3.78
2018-02-24T10:53:48.374Z,3.37
2018-02-24T10:54:54.564Z,6.45
2018-02-24T10:56:00.702Z,4.10
2018-02-24T10:57:06.921Z,3.60
2018-02-24T10:58:13.173Z,3.55
2018-02-24T10:59:19.365Z,3.72
2018-02-24T11:00:25.629Z,3.80
2018-02-24T11:01:31.875Z,3.60
2018-02-24T11:02:38.089Z,3.40
2018-02-24T11:03:44.328Z,3.65
2018-02-24T11:04:50.533Z,3.37
2018-02-24T11:05:56.749Z,3.60
2018-02-24T11:07:03.156Z,2.50
2018-02-24T11:08:09.437Z,3.15
2018-02-24T11:09:15.675Z,2.37
2018-02-24T11:10:22.048Z,2.95
2018-02-24T11:11:28.464Z,2.65
2018-02-24T11:12:34.617Z,3.00
2018-02-24T11:13:40.819Z,2.33
2018-02-24T11:14:47.005Z,2.08
2018-02-24T11:15:53.233Z,2.80
2018-02-24T11:16:59.392Z,2.75
2018-02-24T11:18:05.661Z,3.10
2018-02-24T11:19:11.876Z,2.85
2018-02-24T11:20:18.121Z,2.10
2018-02-24T11:21:24.312Z,2.00
2018-02-24T11:22:30.526Z,2.00
2018-02-24T11:23:36.962Z,1.65
2018-02-24T11:24:43.188Z,1.85
2018-02-24T11:25:49.513Z,1.20
2018-02-24T11:26:55.741Z,1.80
2018-02-24T11:28:01.677Z,1.75
2018-02-24T11:29:07.864Z,1.80
2018-02-24T11:30:14.083Z,1.80
2018-02-24T11:31:20.298Z,1.60
2018-02-24T11:32:26.683Z,1.40
2018-02-24T11:33:32.841Z,1.70
2018-02-24T11:34:39.010Z,1.30
2018-02-24T11:35:45.585Z,1.15
2018-02-24T11:36:51.788Z,1.40
2018-02-24T11:37:58.012Z,1.48
2018-02-24T11:39:03.557Z,1.75
2018-02-24T11:40:09.915Z,1.75
2018-02-24T11:41:16.188Z,1.08
2018-02-24T11:42:22.369Z,1.58
2018-02-24T11:43:28.349Z,1.00
2018-02-24T11:44:34.621Z,1.60
2018-02-24T11:45:41.242Z,1.40
2018-02-24T11:46:47.465Z,1.50
2018-02-24T11:47:53.712Z,1.50
2018-02-24T11:48:59.977Z,1.45
2018-02-24T11:50:06.242Z,2.00
2018-02-24T11:51:12.457Z,1.70
2018-02-24T11:52:18.677Z,1.73
2018-02-24T11:53:25.198Z,1.58
2018-02-24T11:54:31.397Z,1.50
2018-02-24T11:55:37.629Z,1.23
2018-02-24T11:56:44.560Z,1.40
2018-02-24T11:57:50.844Z,1.42
2018-02-24T11:58:57.014Z,1.83
2018-02-24T12:00:03.161Z,1.92
2018-02-24T12:01:09.091Z,2.20
2018-02-24T12:02:15.296Z,2.22
2018-02-24T12:03:21.489Z,1.85
2018-02-24T12:04:27.728Z,1.65
2018-02-24T12:05:33.593Z,1.80
2018-02-24T12:06:39.798Z,1.90
2018-02-24T12:07:45.959Z,1.42
2018-02-24T12:08:52.166Z,1.70
2018-02-24T12:09:58.234Z,1.92
2018-02-24T12:11:04.598Z,2.05
2018-02-24T12:12:10.655Z,1.92
2018-02-24T12:13:17.223Z,2.20
2018-02-24T12:14:23.466Z,1.95
2018-02-24T12:15:29.701Z,2.20
2018-02-24T12:16:35.903Z,2.03
2018-02-24T12:17:42.213Z,1.50
2018-02-24T12:18:49.289Z,1.90
2018-02-24T12:19:56.844Z,2.05
2018-02-24T12:21:03.575Z,1.80
2018-02-24T12:22:10.329Z,1.42
2018-02-24T12:23:17.579Z,2.20
2018-02-24T12:24:26.936Z,2.00
2018-02-24T12:25:33.703Z,2.20
2018-02-24T12:26:40.429Z,1.60
2018-02-24T12:27:46.878Z,1.75
2018-02-24T12:28:53.286Z,1.50
2018-02-24T12:29:59.907Z,2.65
2018-02-24T12:31:06.838Z,1.70
2018-02-24T12:32:13.407Z,1.60
2018-02-24T12:33:19.866Z,1.65
2018-02-24T12:34:26.534Z,1.92
2018-02-24T12:35:33.027Z,2.10
2018-02-24T12:36:39.960Z,1.60
2018-02-24T12:37:46.885Z,2.15
2018-02-24T12:38:53.492Z,2.00
2018-02-24T12:40:01.642Z,2.85
2018-02-24T12:41:09.557Z,2.08
2018-02-24T12:42:17.319Z,1.62
2018-02-24T12:43:24.710Z,1.80
2018-02-24T12:44:31.703Z,1.83
2018-02-24T12:45:38.156Z,1.62
2018-02-24T12:46:44.820Z,1.95
2018-02-24T12:47:51.245Z,1.80
2018-02-24T12:48:58.088Z,2.08
2018-02-24T12:50:04.524Z,1.70
2018-02-24T12:51:12.165Z,1.85
2018-02-24T12:52:18.588Z,2.00
2018-02-24T12:53:26.120Z,1.45
2018-02-24T12:54:32.910Z,1.55
2018-02-24T12:55:39.813Z,1.77
2018-02-24T12:56:46.597Z,1.58
2018-02-24T12:57:53.016Z,2.08
2018-02-24T12:58:59.882Z,1.83
2018-02-24T13:00:07.288Z,2.35
2018-02-24T13:01:15.748Z,1.62
2018-02-24T13:02:22.303Z,1.80
2018-02-24T13:03:29.648Z,1.85
2018-02-24T13:04:37.292Z,2.20
2018-02-24T13:05:43.803Z,2.40
2018-02-24T13:06:49.950Z,1.73
2018-02-24T13:07:56.386Z,1.50
2018-02-24T13:12:41.182Z,1.85
2018-02-24T13:13:49.151Z,1.75
2018-02-24T13:14:57.030Z,2.05
2018-02-24T13:16:04.549Z,1.85
2018-02-24T13:17:11.921Z,2.97
2018-02-24T13:18:19.843Z,1.80
2018-02-24T13:19:26.312Z,1.77
2018-02-24T13:20:32.731Z,1.80
2018-02-24T13:21:39.336Z,1.85
2018-02-24T13:22:45.690Z,1.87
2018-02-24T13:23:52.043Z,1.90
2018-02-24T13:24:58.870Z,2.55
2018-02-24T13:26:05.495Z,2.22
2018-02-24T13:27:12.000Z,1.73
2018-02-24T13:28:18.367Z,1.90
2018-02-24T13:29:24.626Z,2.35
2018-02-24T13:30:31.324Z,2.03
2018-02-24T13:31:38.125Z,1.92
2018-02-24T13:32:44.824Z,2.00
2018-02-24T13:33:51.405Z,1.60
2018-02-24T13:34:57.466Z,1.58
2018-02-24T13:36:03.680Z,1.60
2018-02-24T13:37:09.448Z,1.35
2018-02-24T13:38:15.488Z,1.92
2018-02-24T13:39:21.521Z,2.20
2018-02-24T13:40:27.557Z,1.73
2018-02-24T13:41:33.752Z,2.28
2018-02-24T13:42:40.000Z,1.70
2018-02-24T13:43:45.723Z,1.50
2018-02-24T13:44:51.711Z,1.45
2018-02-24T13:45:57.918Z,1.70
2018-02-24T13:47:09.196Z,1.83
2018-02-24T13:48:15.441Z,1.70
2018-02-24T13:49:21.829Z,2.45
2018-02-24T13:50:28.080Z,2.40
2018-02-24T13:51:34.339Z,2.53
2018-02-24T13:52:40.490Z,2.22
2018-02-24T13:53:46.738Z,1.83
2018-02-24T13:54:52.971Z,1.95
2018-02-24T13:55:59.188Z,2.03
2018-02-24T13:57:05.358Z,2.30
2018-02-24T13:58:11.525Z,1.87
2018-02-24T13:59:17.774Z,2.35
2018-02-24T14:00:24.026Z,3.05
2018-02-24T14:01:30.603Z,1.80
2018-02-24T14:02:36.869Z,2.00
2018-02-24T14:03:43.108Z,1.70
2018-02-24T14:04:49.313Z,1.95
2018-02-24T14:05:55.523Z,2.03
2018-02-24T14:07:02.066Z,1.90
2018-02-24T14:08:08.255Z,1.55
2018-02-24T14:09:14.397Z,3.03
2018-02-24T14:10:20.627Z,2.60
2018-02-24T14:11:27.033Z,2.05
2018-02-24T14:12:33.230Z,2.20
2018-02-24T14:13:42.241Z,1.95
2018-02-24T14:14:48.407Z,2.20
2018-02-24T14:15:54.575Z,1.90
2018-02-24T14:17:00.812Z,1.92
2018-02-24T14:18:06.991Z,1.80
2018-02-24T14:19:13.182Z,1.92
2018-02-24T14:20:19.412Z,2.72
2018-02-24T14:21:25.633Z,1.98
2018-02-24T14:22:31.645Z,2.20
2018-02-24T14:23:38.059Z,2.25
2018-02-24T14:24:44.245Z,2.30
2018-02-24T14:25:50.461Z,2.00
2018-02-24T14:26:56.670Z,2.15
2018-02-24T14:28:02.854Z,1.42
2018-02-24T14:29:09.304Z,2.37
2018-02-24T14:30:15.551Z,2.00
2018-02-24T14:31:22.039Z,2.50
2018-02-24T14:32:28.243Z,1.83
2018-02-24T14:33:34.433Z,2.20